createdAt,value
2023-05-08T00:00:59.108Z,12.27
2023-05-08T00:03:27.530Z,11.80
2023-05-08T00:05:56.515Z,11.07
2023-05-08T00:08:25.464Z,10.90
2023-05-08T00:10:53.379Z,12.67
2023-05-08T00:13:22.831Z,10.97
2023-05-08T00:15:51.315Z,11.90
2023-05-08T00:18:19.336Z,12.20
2023-05-08T00:20:47.311Z,11.60
2023-05-08T00:23:15.286Z,11.50
2023-05-08T00:25:43.231Z,12.10
2023-05-08T00:28:11.266Z,12.17
2023-05-08T00:30:40.805Z,11.27
2023-05-08T00:33:09.297Z,11.00
2023-05-08T00:35:37.304Z,13.73
2023-05-08T00:38:05.346Z,13.90
2023-05-08T00:40:33.329Z,13.87
2023-05-08T00:43:01.487Z,9.37
2023-05-08T00:45:35.810Z,10.67
2023-05-08T00:48:05.748Z,10.80
2023-05-08T00:50:34.144Z,10.63
2023-05-08T00:53:02.861Z,9.77
2023-05-08T00:55:31.619Z,10.60
2023-05-08T00:57:59.785Z,10.80
2023-05-08T01:00:28.090Z,13.07
2023-05-08T01:02:56.159Z,11.30
2023-05-08T01:05:25.480Z,10.33
2023-05-08T01:07:53.479Z,17.17
2023-05-08T01:10:21.495Z,10.20
2023-05-08T01:13:01.891Z,12.27
2023-05-08T01:15:36.081Z,10.50
2023-05-08T01:18:20.846Z,14.20
2023-05-08T01:21:03.706Z,13.50
2023-05-08T01:24:05.346Z,10.73
2023-05-08T01:27:16.467Z,10.47
2023-05-08T01:30:22.949Z,10.87
2023-05-08T01:32:58.357Z,10.50
2023-05-08T01:35:32.502Z,10.27
2023-05-08T01:38:09.604Z,11.40
2023-05-08T01:40:45.759Z,10.20
2023-05-08T01:43:20.866Z,12.90
2023-05-08T01:45:51.359Z,12.60
2023-05-08T01:48:26.514Z,13.23
2023-05-08T01:50:59.298Z,12.13
2023-05-08T01:53:31.616Z,11.55
2023-05-08T01:56:04.523Z,11.33
2023-05-08T01:58:36.322Z,12.07
2023-05-08T02:01:05.763Z,10.67
2023-05-08T02:03:36.169Z,13.17
2023-05-08T02:06:05.675Z,13.57
2023-05-08T02:08:36.001Z,15.27
2023-05-08T02:11:05.201Z,14.53
2023-05-08T02:13:34.258Z,14.20
2023-05-08T02:16:03.444Z,15.07
2023-05-08T02:18:35.643Z,15.70
2023-05-08T02:21:06.453Z,13.47
2023-05-08T02:23:35.918Z,15.33
2023-05-08T02:26:05.143Z,14.13
2023-05-08T02:28:34.614Z,19.23
2023-05-08T02:31:03.664Z,15.17
2023-05-08T02:33:31.995Z,18.07
2023-05-08T02:36:03.344Z,20.23
2023-05-08T02:38:32.660Z,18.43
2023-05-08T02:41:05.535Z,16.37
2023-05-08T02:43:33.659Z,17.10
2023-05-08T02:46:11.935Z,16.77
2023-05-08T02:48:48.890Z,22.33
2023-05-08T02:51:22.224Z,24.20
2023-05-08T02:53:56.896Z,23.37
2023-05-08T02:56:33.758Z,23.43
2023-05-08T02:59:11.267Z,23.00
2023-05-08T03:01:46.865Z,22.97
2023-05-08T03:04:25.467Z,24.53
2023-05-08T03:06:58.032Z,24.60
2023-05-08T03:09:32.957Z,26.73
2023-05-08T03:12:04.888Z,27.20
2023-05-08T03:14:36.458Z,25.77
2023-05-08T03:17:08.477Z,24.92
2023-05-08T03:19:39.181Z,33.20
2023-05-08T03:22:09.816Z,28.17
2023-05-08T03:24:39.726Z,24.77
2023-05-08T03:27:09.898Z,24.33
2023-05-08T03:29:40.415Z,24.90
2023-05-08T03:32:09.482Z,25.83
2023-05-08T03:34:37.457Z,24.80
2023-05-08T03:37:05.589Z,23.07
2023-05-08T03:39:34.920Z,23.17
2023-05-08T03:42:03.272Z,22.40
2023-05-08T03:44:31.641Z,20.73
2023-05-08T03:47:00.368Z,22.63
2023-05-08T03:49:31.908Z,18.95
2023-05-08T03:52:00.889Z,22.10
2023-05-08T03:54:30.260Z,22.23
2023-05-08T03:57:00.063Z,29.93
2023-05-08T03:59:39.470Z,23.57
2023-05-08T04:02:17.680Z,30.53
2023-05-08T04:04:47.868Z,24.80
2023-05-08T04:07:22.470Z,20.77
2023-05-08T04:10:00.563Z,24.47
2023-05-08T04:12:37.521Z,24.90
2023-05-08T04:15:10.119Z,23.30
2023-05-08T04:17:43.775Z,24.63
2023-05-08T04:20:16.525Z,22.27
2023-05-08T04:22:46.138Z,22.33
2023-05-08T04:25:18.383Z,24.43
2023-05-08T04:27:48.796Z,22.43
2023-05-08T04:30:17.254Z,22.07
2023-05-08T04:32:46.836Z,21.37
2023-05-08T04:35:15.735Z,21.63
2023-05-08T04:37:44.432Z,23.40
2023-05-08T04:40:13.213Z,20.60
2023-05-08T04:42:42.984Z,20.90
2023-05-08T04:45:13.140Z,20.77
2023-05-08T04:47:41.337Z,20.80
2023-05-08T04:50:10.283Z,22.27
2023-05-08T04:52:38.401Z,22.48
2023-05-08T04:55:07.228Z,25.20
2023-05-08T04:57:35.250Z,21.43
2023-05-08T05:00:03.306Z,23.33
2023-05-08T05:02:32.692Z,19.67
2023-05-08T05:05:01.299Z,21.93
2023-05-08T05:07:29.334Z,21.65
2023-05-08T05:09:57.360Z,20.57
2023-05-08T05:12:25.341Z,23.90
2023-05-08T05:14:53.329Z,21.77
2023-05-08T05:17:21.620Z,20.80
2023-05-08T05:19:52.820Z,22.20
2023-05-08T05:22:21.380Z,21.40
2023-05-08T05:24:49.388Z,21.73
2023-05-08T05:27:19.318Z,20.77
2023-05-08T05:29:48.026Z,22.27
2023-05-08T05:32:15.984Z,20.60
2023-05-08T05:34:43.935Z,19.53
2023-05-08T05:37:13.298Z,20.20
2023-05-08T05:39:41.266Z,19.07
2023-05-08T05:42:09.348Z,21.47
2023-05-08T05:44:38.186Z,22.77
2023-05-08T05:47:09.952Z,17.80
2023-05-08T05:49:39.583Z,20.77
2023-05-08T05:52:07.565Z,22.57
2023-05-08T05:54:36.887Z,23.70
2023-05-08T05:57:05.099Z,21.03
2023-05-08T05:59:33.070Z,26.90
2023-05-08T06:02:02.447Z,19.30
2023-05-08T06:04:30.606Z,23.80
2023-05-08T06:06:58.745Z,22.10
2023-05-08T06:09:26.768Z,26.10
2023-05-08T06:11:56.252Z,23.73
2023-05-08T06:14:24.581Z,19.87
2023-05-08T06:16:52.560Z,24.37
2023-05-08T06:19:20.660Z,29.20
2023-05-08T06:21:48.695Z,25.90
2023-05-08T06:24:16.690Z,24.60
2023-05-08T06:26:44.697Z,20.00
2023-05-08T06:29:14.137Z,22.23
2023-05-08T06:31:42.060Z,19.93
2023-05-08T06:34:10.205Z,22.83
2023-05-08T06:36:38.168Z,25.07
2023-05-08T06:39:06.748Z,29.53
2023-05-08T06:41:34.782Z,22.30
2023-05-08T06:44:02.780Z,25.40
2023-05-08T06:46:32.217Z,19.00
2023-05-08T06:49:00.180Z,27.47
2023-05-08T06:51:28.144Z,20.90
2023-05-08T06:53:56.141Z,19.23
2023-05-08T06:56:24.643Z,18.00
2023-05-08T06:59:01.070Z,16.48
2023-05-08T07:01:34.270Z,21.20
2023-05-08T07:04:03.356Z,17.13
2023-05-08T07:06:31.926Z,17.10
2023-05-08T07:08:59.940Z,19.83
2023-05-08T07:11:28.071Z,18.20
2023-05-08T07:13:56.023Z,15.53
2023-05-08T07:16:24.099Z,16.30
2023-05-08T07:18:53.605Z,18.90
2023-05-08T07:21:21.596Z,20.23
2023-05-08T07:23:51.656Z,18.40
2023-05-08T07:26:22.584Z,19.30
2023-05-08T07:28:53.729Z,16.73
2023-05-08T07:31:22.093Z,17.50
2023-05-08T07:33:50.046Z,16.40
2023-05-08T07:36:19.417Z,15.37
2023-05-08T07:38:47.388Z,14.77
2023-05-08T07:41:15.609Z,16.10
2023-05-08T07:43:45.152Z,14.17
2023-05-08T07:46:18.055Z,16.33
2023-05-08T07:48:46.100Z,16.10
2023-05-08T07:51:14.461Z,18.07
2023-05-08T07:53:44.489Z,16.30
2023-05-08T07:56:12.718Z,14.67
2023-05-08T07:58:42.537Z,15.83
2023-05-08T08:01:10.580Z,13.50
2023-05-08T08:03:38.664Z,13.33
2023-05-08T08:06:06.884Z,14.00
2023-05-08T08:08:35.235Z,15.13
2023-05-08T08:11:04.620Z,14.13
2023-05-08T08:13:32.756Z,15.53
2023-05-08T08:16:00.988Z,14.83
2023-05-08T08:18:28.997Z,14.67
2023-05-08T08:20:57.304Z,16.43
2023-05-08T08:23:25.424Z,14.43
2023-05-08T08:25:53.536Z,16.43
2023-05-08T08:28:22.875Z,15.13
2023-05-08T08:30:51.001Z,13.80
2023-05-08T08:33:19.313Z,13.07
2023-05-08T08:35:47.626Z,13.90
2023-05-08T08:38:16.411Z,13.03
2023-05-08T08:40:44.444Z,11.50
2023-05-08T08:43:12.580Z,13.40
2023-05-08T08:45:42.020Z,13.43
2023-05-08T08:48:13.313Z,10.70
2023-05-08T08:50:44.953Z,11.30
2023-05-08T08:53:18.033Z,16.47
2023-05-08T08:55:52.426Z,13.07
2023-05-08T08:58:26.359Z,13.40
2023-05-08T09:00:57.182Z,13.40
2023-05-08T09:03:25.258Z,18.27
2023-05-08T09:05:53.586Z,12.53
2023-05-08T09:08:21.737Z,12.17
2023-05-08T09:10:49.823Z,12.07
2023-05-08T09:13:19.834Z,13.30
2023-05-08T09:15:49.137Z,12.97
2023-05-08T09:18:19.237Z,13.80
2023-05-08T09:20:47.507Z,11.27
2023-05-08T09:23:17.347Z,12.10
2023-05-08T09:25:46.370Z,11.90
2023-05-08T09:28:18.349Z,11.50
2023-05-08T09:30:51.531Z,9.97
2023-05-08T09:33:21.722Z,10.10
2023-05-08T09:35:50.354Z,11.40
2023-05-08T09:38:44.030Z,13.43
2023-05-08T09:41:14.427Z,13.23
2023-05-08T09:43:43.597Z,13.20
2023-05-08T09:46:25.134Z,12.80
2023-05-08T09:48:56.433Z,14.23
2023-05-08T09:51:25.024Z,11.03
2023-05-08T09:53:54.041Z,11.07
2023-05-08T09:56:36.159Z,10.90
2023-05-08T09:59:06.639Z,12.37
2023-05-08T10:01:36.247Z,10.63
2023-05-08T10:04:06.373Z,11.20
2023-05-08T10:06:36.327Z,10.80
2023-05-08T10:09:14.668Z,10.20
2023-05-08T10:11:52.072Z,12.20
2023-05-08T10:14:20.814Z,13.43
2023-05-08T10:16:51.819Z,11.57
2023-05-08T10:19:24.230Z,9.87
2023-05-08T10:21:54.516Z,9.77
2023-05-08T10:24:27.342Z,9.13
2023-05-08T10:27:06.398Z,10.05
2023-05-08T10:29:42.405Z,9.67
2023-05-08T10:32:11.392Z,9.40
2023-05-08T10:34:42.649Z,8.40
2023-05-08T10:37:11.778Z,7.03
2023-05-08T10:39:41.407Z,7.43
2023-05-08T10:42:09.525Z,10.03
2023-05-08T10:44:37.923Z,7.60
2023-05-08T10:47:13.474Z,10.20
2023-05-08T10:49:52.923Z,9.40
2023-05-08T10:52:31.080Z,8.93
2023-05-08T10:55:20.866Z,7.40
2023-05-08T10:58:04.785Z,9.17
2023-05-08T11:00:34.811Z,7.97
2023-05-08T11:03:19.957Z,9.90
2023-05-08T11:05:51.588Z,8.60
2023-05-08T11:08:24.714Z,7.93
2023-05-08T11:11:02.206Z,8.03
2023-05-08T11:13:33.472Z,8.87
2023-05-08T11:16:01.848Z,7.40
2023-05-08T11:18:45.767Z,10.00
2023-05-08T11:21:22.638Z,9.37
2023-05-08T11:23:58.142Z,7.43
2023-05-08T11:26:41.017Z,8.50
2023-05-08T11:29:18.614Z,10.70
2023-05-08T11:31:53.782Z,9.67
2023-05-08T11:34:55.096Z,7.10
2023-05-08T11:37:25.617Z,7.77
2023-05-08T11:39:53.750Z,7.37
2023-05-08T11:42:37.047Z,7.90
2023-05-08T11:45:07.562Z,7.50
2023-05-08T11:47:39.770Z,6.60
2023-05-08T11:50:10.250Z,9.00
2023-05-08T11:52:41.916Z,8.83
2023-05-08T11:55:12.867Z,7.10
2023-05-08T11:57:40.898Z,6.50
2023-05-08T12:00:10.791Z,9.60
2023-05-08T12:02:40.616Z,5.90
2023-05-08T12:05:09.971Z,7.17
2023-05-08T12:07:46.439Z,10.77
2023-05-08T12:10:15.897Z,6.90
2023-05-08T12:12:46.332Z,7.60
2023-05-08T12:15:16.134Z,5.77
2023-05-08T12:17:44.728Z,7.93
2023-05-08T12:20:14.661Z,6.80
2023-05-08T12:22:52.758Z,7.57
2023-05-08T12:25:22.070Z,7.80
2023-05-08T12:27:50.447Z,6.77
2023-05-08T12:30:19.202Z,7.90
2023-05-08T12:32:48.020Z,4.77
2023-05-08T12:35:16.638Z,6.70
2023-05-08T12:37:46.930Z,6.63
2023-05-08T12:40:27.423Z,10.40
2023-05-08T12:42:55.550Z,5.20
2023-05-08T12:45:28.148Z,11.37
2023-05-08T12:48:00.936Z,16.83
2023-05-08T12:50:30.622Z,6.63
2023-05-08T12:53:05.499Z,5.87
2023-05-08T12:55:35.362Z,7.97
2023-05-08T12:58:05.473Z,6.20
2023-05-08T13:00:39.005Z,7.78
2023-05-08T13:03:08.521Z,4.77
2023-05-08T13:05:37.750Z,5.80
2023-05-08T13:08:09.383Z,8.83
2023-05-08T13:10:51.627Z,5.70
2023-05-08T13:13:21.050Z,4.93
2023-05-08T13:15:50.096Z,12.30
2023-05-08T13:18:20.113Z,4.77
2023-05-08T13:20:48.104Z,4.87
2023-05-08T13:23:17.475Z,6.20
2023-05-08T13:25:45.437Z,5.87
2023-05-08T13:28:13.456Z,4.77
2023-05-08T13:30:41.623Z,9.20
2023-05-08T13:33:09.865Z,5.67
2023-05-08T13:35:37.889Z,5.43
2023-05-08T13:38:05.958Z,11.60
2023-05-08T13:40:35.294Z,8.00
2023-05-08T13:43:03.290Z,4.70
2023-05-08T13:45:32.814Z,16.67
2023-05-08T13:48:01.942Z,5.00
2023-05-08T13:50:30.358Z,4.87
2023-05-08T13:52:58.758Z,4.90
2023-05-08T13:55:26.929Z,4.63
2023-05-08T13:57:56.341Z,6.97
2023-05-08T14:00:26.005Z,4.90
2023-05-08T14:02:55.942Z,6.50
2023-05-08T14:05:24.079Z,6.70
2023-05-08T14:07:52.037Z,6.47
2023-05-08T14:10:20.263Z,6.07
2023-05-08T14:12:48.288Z,5.00
2023-05-08T14:15:17.715Z,4.50
2023-05-08T14:17:45.701Z,3.77
2023-05-08T14:20:13.848Z,4.93
2023-05-08T14:22:41.974Z,6.70
2023-05-08T14:25:11.247Z,4.80
2023-05-08T14:27:39.432Z,5.43
2023-05-08T14:30:09.001Z,5.20
2023-05-08T14:32:38.484Z,9.33
2023-05-08T14:35:07.259Z,6.30
2023-05-08T14:37:35.229Z,5.70
2023-05-08T14:40:03.865Z,4.63
2023-05-08T14:42:33.360Z,7.90
2023-05-08T14:45:01.521Z,8.33
2023-05-08T14:47:31.252Z,4.80
2023-05-08T14:50:00.639Z,13.70
2023-05-08T14:52:28.818Z,5.77
2023-05-08T14:54:58.689Z,4.17
2023-05-08T14:57:27.109Z,4.63
2023-05-08T14:59:56.166Z,5.73
2023-05-08T15:02:27.141Z,17.63
2023-05-08T15:04:55.091Z,4.47
2023-05-08T15:07:24.580Z,7.03
2023-05-08T15:09:53.093Z,5.37
2023-05-08T15:12:21.120Z,7.40
2023-05-08T15:14:49.149Z,5.20
2023-05-08T15:17:17.479Z,5.97
2023-05-08T15:19:45.690Z,6.30
2023-05-08T15:22:13.932Z,5.53
2023-05-08T15:24:43.301Z,6.07
2023-05-08T15:27:12.056Z,14.67
2023-05-08T15:29:40.715Z,11.83
2023-05-08T15:32:09.064Z,7.43
2023-05-08T15:34:38.050Z,4.70
2023-05-08T15:37:07.199Z,7.23
2023-05-08T15:39:36.757Z,12.00
2023-05-08T15:42:06.907Z,6.53
2023-05-08T15:44:52.596Z,6.00
2023-05-08T15:47:22.991Z,6.67
2023-05-08T15:49:51.203Z,7.00
2023-05-08T15:52:19.831Z,6.10
2023-05-08T15:54:47.990Z,7.20
2023-05-08T15:57:18.024Z,4.33
2023-05-08T15:59:46.089Z,7.50
2023-05-08T16:02:14.059Z,7.00
2023-05-08T16:04:42.262Z,7.70
2023-05-08T16:07:10.410Z,6.67
2023-05-08T16:09:38.403Z,7.23
2023-05-08T16:12:07.000Z,6.50
2023-05-08T16:14:36.888Z,5.33
2023-05-08T16:17:06.611Z,4.50
2023-05-08T16:19:38.617Z,5.63
2023-05-08T16:22:06.870Z,6.10
2023-05-08T16:24:34.865Z,7.43
2023-05-08T16:27:02.921Z,8.47
2023-05-08T16:29:30.905Z,6.77
2023-05-08T16:32:00.249Z,3.90
2023-05-08T16:34:28.207Z,11.60
2023-05-08T16:36:56.203Z,21.10
2023-05-08T16:39:24.281Z,16.05
2023-05-08T16:41:52.495Z,10.47
2023-05-08T16:44:20.568Z,5.27
2023-05-08T16:46:48.580Z,5.23
2023-05-08T16:49:17.953Z,9.27
2023-05-08T16:51:45.948Z,7.07
2023-05-08T16:54:13.931Z,10.95
2023-05-08T16:56:41.953Z,11.93
2023-05-08T16:59:10.000Z,6.80
2023-05-08T17:01:38.031Z,9.60
2023-05-08T17:04:06.032Z,5.47
2023-05-08T17:06:35.591Z,6.60
2023-05-08T17:09:03.687Z,11.93
2023-05-08T17:11:31.671Z,5.00
2023-05-08T17:13:59.929Z,7.47
2023-05-08T17:16:28.293Z,8.30
2023-05-08T17:18:56.373Z,6.30
2023-05-08T17:21:24.514Z,8.30
2023-05-08T17:23:53.839Z,6.67
2023-05-08T17:26:24.308Z,6.20
2023-05-08T17:28:52.355Z,10.10
2023-05-08T17:31:21.113Z,5.87
2023-05-08T17:33:49.685Z,7.93
2023-05-08T17:36:17.834Z,5.10
2023-05-08T17:38:47.304Z,6.00
2023-05-08T17:41:16.754Z,8.67
2023-05-08T17:43:45.237Z,6.70
2023-05-08T17:46:14.084Z,7.43
2023-05-08T17:48:44.577Z,6.23
2023-05-08T17:51:13.545Z,13.53
2023-05-08T17:53:41.674Z,9.10
2023-05-08T17:56:10.247Z,9.00
2023-05-08T17:58:39.659Z,6.00
2023-05-08T18:01:08.198Z,9.57
2023-05-08T18:03:36.423Z,6.00
2023-05-08T18:06:04.574Z,7.80
2023-05-08T18:08:32.739Z,9.97
2023-05-08T18:11:00.701Z,9.70
2023-05-08T18:13:28.869Z,7.70
2023-05-08T18:15:58.451Z,7.63
2023-05-08T18:18:26.997Z,10.07
2023-05-08T18:20:54.915Z,6.90
2023-05-08T18:23:23.013Z,5.40
2023-05-08T18:25:51.038Z,8.73
2023-05-08T18:28:19.117Z,5.90
2023-05-08T18:30:48.325Z,6.70
2023-05-08T18:33:17.790Z,13.07
2023-05-08T18:35:45.797Z,13.50
2023-05-08T18:38:13.926Z,10.33
2023-05-08T18:40:41.874Z,11.03
2023-05-08T18:43:09.945Z,14.60
2023-05-08T18:45:39.524Z,8.83
2023-05-08T18:48:07.617Z,10.53
2023-05-08T18:50:37.493Z,11.87
2023-05-08T18:53:06.472Z,7.30
2023-05-08T18:55:34.441Z,8.90
2023-05-08T18:58:02.452Z,7.30
2023-05-08T19:00:30.571Z,15.77
2023-05-08T19:02:58.650Z,16.07
2023-05-08T19:05:26.708Z,8.90
2023-05-08T19:07:56.176Z,10.50
2023-05-08T19:10:24.481Z,26.17
2023-05-08T19:12:52.427Z,6.40
2023-05-08T19:15:20.621Z,10.70
2023-05-08T19:17:48.584Z,8.53
2023-05-08T19:20:16.909Z,10.90
2023-05-08T19:22:46.662Z,10.00
2023-05-08T19:25:16.274Z,10.90
2023-05-08T19:27:44.219Z,6.23
2023-05-08T19:30:13.134Z,7.93
2023-05-08T19:32:41.413Z,10.20
2023-05-08T19:35:10.424Z,12.00
2023-05-08T19:37:38.872Z,8.90
2023-05-08T19:40:07.778Z,7.17
2023-05-08T19:42:37.109Z,11.83
2023-05-08T19:45:05.703Z,12.30
2023-05-08T19:47:33.665Z,9.20
2023-05-08T19:50:01.617Z,10.33
2023-05-08T19:52:29.614Z,13.13
2023-05-08T19:54:58.279Z,12.80
2023-05-08T19:57:26.221Z,10.20
2023-05-08T19:59:55.938Z,8.70
2023-05-08T20:02:24.010Z,13.47
2023-05-08T20:05:18.708Z,9.43
2023-05-08T20:07:40.014Z,10.17
2023-05-08T20:10:09.137Z,10.93
2023-05-08T20:12:37.116Z,9.73
2023-05-08T20:15:07.237Z,8.93
2023-05-08T20:17:35.287Z,8.40
2023-05-08T20:20:03.281Z,8.87
2023-05-08T20:22:31.252Z,9.70
2023-05-08T20:25:00.172Z,10.13
2023-05-08T20:27:29.491Z,9.38
2023-05-08T20:29:57.469Z,9.60
2023-05-08T20:32:26.864Z,11.37
2023-05-08T20:34:54.857Z,8.87
2023-05-08T20:37:22.838Z,12.68
2023-05-08T20:39:50.896Z,9.03
2023-05-08T20:42:18.855Z,12.77
2023-05-08T20:44:46.905Z,11.37
2023-05-08T20:47:14.846Z,10.37
2023-05-08T20:49:44.323Z,8.85
2023-05-08T20:52:12.251Z,16.17
2023-05-08T20:54:40.210Z,9.97
2023-05-08T20:57:08.179Z,11.73
2023-05-08T20:59:36.192Z,9.00
2023-05-08T21:02:04.153Z,13.17
2023-05-08T21:04:32.166Z,17.00
2023-05-08T21:07:02.326Z,11.60
2023-05-08T21:09:30.246Z,10.87
2023-05-08T21:11:58.663Z,17.93
2023-05-08T21:14:26.906Z,10.88
2023-05-08T21:16:55.365Z,10.83
2023-05-08T21:19:23.688Z,16.23
2023-05-08T21:21:51.658Z,12.90
2023-05-08T21:24:21.489Z,11.60
2023-05-08T21:26:49.439Z,13.33
2023-05-08T21:29:17.391Z,10.80
2023-05-08T21:31:45.427Z,9.83
2023-05-08T21:34:14.827Z,12.33
2023-05-08T21:36:42.850Z,9.97
2023-05-08T21:39:10.803Z,8.77
2023-05-08T21:41:42.954Z,14.03
2023-05-08T21:44:12.625Z,12.13
2023-05-08T21:46:40.764Z,10.93
2023-05-08T21:49:08.882Z,12.13
2023-05-08T21:51:36.827Z,11.40
2023-05-08T21:54:05.072Z,9.07
2023-05-08T21:56:33.015Z,15.23
2023-05-08T21:59:02.337Z,11.85
2023-05-08T22:01:30.352Z,12.70
2023-05-08T22:03:58.615Z,10.83
2023-05-08T22:06:26.685Z,10.90
2023-05-08T22:08:54.644Z,10.30
2023-05-08T22:11:22.928Z,10.20
2023-05-08T22:13:50.867Z,11.77
2023-05-08T22:16:20.268Z,11.00
2023-05-08T22:18:48.449Z,11.47
2023-05-08T22:21:16.388Z,11.18
2023-05-08T22:23:44.356Z,8.70
2023-05-08T22:26:12.332Z,10.87
2023-05-08T22:28:40.261Z,9.90
2023-05-08T22:31:08.440Z,11.13
2023-05-08T22:33:37.738Z,8.97
2023-05-08T22:36:06.293Z,9.40
2023-05-08T22:38:34.216Z,13.00
2023-05-08T22:41:02.488Z,10.47
2023-05-08T22:43:31.766Z,10.87
2023-05-08T22:45:59.903Z,19.27
2023-05-08T22:48:27.892Z,8.83
2023-05-08T22:50:57.315Z,11.43
2023-05-08T22:53:25.384Z,12.57
2023-05-08T22:55:53.359Z,12.77
2023-05-08T22:58:21.319Z,11.80
2023-05-08T23:00:49.291Z,14.80
2023-05-08T23:03:17.501Z,13.37
2023-05-08T23:05:45.814Z,9.87
2023-05-08T23:08:15.272Z,11.90
2023-05-08T23:10:43.460Z,11.17
2023-05-08T23:13:11.488Z,11.67
2023-05-08T23:15:39.413Z,11.13
2023-05-08T23:18:07.733Z,16.00
2023-05-08T23:20:35.919Z,12.20
2023-05-08T23:23:03.874Z,9.87
2023-05-08T23:25:33.178Z,9.57
2023-05-08T23:28:01.219Z,11.63
2023-05-08T23:30:29.266Z,16.43
2023-05-08T23:32:57.229Z,9.50
2023-05-08T23:35:25.310Z,8.20
2023-05-08T23:37:53.331Z,20.93
2023-05-08T23:40:21.563Z,10.70
2023-05-08T23:42:52.033Z,12.17
2023-05-08T23:45:20.041Z,9.50
2023-05-08T23:47:49.281Z,10.90
2023-05-08T23:50:17.508Z,12.80
2023-05-08T23:52:45.526Z,12.30
2023-05-08T23:55:13.731Z,12.00
2023-05-08T23:57:41.800Z,11.30
